KMOD/MOD METAR and TAF weather

Enter ICAO airport designator
Station Type Date Time Source
KMOD METAR 2019/04/19 09:53 UTC NOAA

KMOD 190953Z AUTO 01004KT 10SM CLR 17/12 A2998 RMK AO2 SLP150 T01720117


Station Type Date Time Source
KMOD Decoded METAR 2019/04/19 09:53 UTC NOAA

MODESTO CITY CO SHAM FLD, CA, United States (KMOD) 37-37N 120-57W 29M
Apr 19, 2019 - 05:53 AM EDT / 2019.04.19 0953 UTC
Wind: from the N (010 degrees) at 5 MPH (4 KT):0
Visibility: 10 mile(s):0
Sky conditions: clear
Temperature: 63.0 F (17.2 C)
Dew Point: 53.1 F (11.7 C)
Relative Humidity: 70%
Pressure (altimeter): 29.98 in. Hg (1015 hPa)
ob: KMOD 190953Z AUTO 01004KT 10SM CLR 17/12 A2998 RMK AO2 SLP150 T01720117
cycle: 10

Station Type Date Time Source
KMOD TAF 2019/04/19 06:39 UTC NOAA

TAF KMOD 190531Z 1906/2006 00000KT P6SM SKC
FM192000 33005KT P6SM SCT250

Example: see airport list